sensor_id;sensor_type;location;lat;lon;timestamp;temperature;humidity
78619;DHT22;67941;52.506;5.470;2023-02-28T00:01:43;4.70;63.30
78619;DHT22;67941;52.506;5.470;2023-02-28T00:04:12;4.70;63.40
78619;DHT22;67941;52.506;5.470;2023-02-28T00:06:41;4.70;63.30
78619;DHT22;67941;52.506;5.470;2023-02-28T00:09:13;4.70;63.30
78619;DHT22;67941;52.506;5.470;2023-02-28T00:11:42;4.70;63.40
78619;DHT22;67941;52.506;5.470;2023-02-28T00:14:11;4.70;63.40
78619;DHT22;67941;52.506;5.470;2023-02-28T00:16:39;4.70;63.50
78619;DHT22;67941;52.506;5.470;2023-02-28T00:19:08;4.70;63.50
78619;DHT22;67941;52.506;5.470;2023-02-28T00:21:39;4.70;63.50
78619;DHT22;67941;52.506;5.470;2023-02-28T00:24:12;4.70;63.60
78619;DHT22;67941;52.506;5.470;2023-02-28T00:26:40;4.70;63.60
78619;DHT22;67941;52.506;5.470;2023-02-28T00:29:09;4.70;63.60
78619;DHT22;67941;52.506;5.470;2023-02-28T00:31:38;4.70;63.60
78619;DHT22;67941;52.506;5.470;2023-02-28T00:34:07;4.70;63.70
78619;DHT22;67941;52.506;5.470;2023-02-28T00:36:36;4.70;63.70
78619;DHT22;67941;52.506;5.470;2023-02-28T00:39:06;4.70;63.70
78619;DHT22;67941;52.506;5.470;2023-02-28T00:41:38;4.70;63.70
78619;DHT22;67941;52.506;5.470;2023-02-28T00:44:07;4.80;63.70
78619;DHT22;67941;52.506;5.470;2023-02-28T00:46:35;4.80;63.70
78619;DHT22;67941;52.506;5.470;2023-02-28T00:49:04;4.80;63.70
78619;DHT22;67941;52.506;5.470;2023-02-28T00:51:35;4.80;63.80
78619;DHT22;67941;52.506;5.470;2023-02-28T00:54:04;4.80;63.80
78619;DHT22;67941;52.506;5.470;2023-02-28T00:56:33;4.80;63.80
78619;DHT22;67941;52.506;5.470;2023-02-28T00:59:05;4.80;63.90
78619;DHT22;67941;52.506;5.470;2023-02-28T01:01:34;4.80;63.90
78619;DHT22;67941;52.506;5.470;2023-02-28T01:04:03;4.80;64.00
78619;DHT22;67941;52.506;5.470;2023-02-28T01:06:33;4.80;64.00
78619;DHT22;67941;52.506;5.470;2023-02-28T01:09:02;4.80;64.00
78619;DHT22;67941;52.506;5.470;2023-02-28T01:11:31;4.80;64.10
78619;DHT22;67941;52.506;5.470;2023-02-28T01:14:01;4.80;64.10
78619;DHT22;67941;52.506;5.470;2023-02-28T01:16:33;4.90;64.10
78619;DHT22;67941;52.506;5.470;2023-02-28T01:19:02;4.90;64.10
78619;DHT22;67941;52.506;5.470;2023-02-28T01:21:31;4.90;64.10
78619;DHT22;67941;52.506;5.470;2023-02-28T01:24:00;4.90;64.20
78619;DHT22;67941;52.506;5.470;2023-02-28T01:26:30;4.90;64.20
78619;DHT22;67941;52.506;5.470;2023-02-28T01:28:58;4.90;64.20
78619;DHT22;67941;52.506;5.470;2023-02-28T01:31:27;4.90;64.30
78619;DHT22;67941;52.506;5.470;2023-02-28T01:33:59;4.90;64.30
78619;DHT22;67941;52.506;5.470;2023-02-28T01:36:28;4.90;64.30
78619;DHT22;67941;52.506;5.470;2023-02-28T01:38:57;4.90;64.30
78619;DHT22;67941;52.506;5.470;2023-02-28T01:41:27;4.90;64.30
78619;DHT22;67941;52.506;5.470;2023-02-28T01:44:03;4.90;64.40
78619;DHT22;67941;52.506;5.470;2023-02-28T01:46:34;4.90;64.40
78619;DHT22;67941;52.506;5.470;2023-02-28T01:49:09;4.90;64.40
78619;DHT22;67941;52.506;5.470;2023-02-28T01:51:41;4.90;64.40
78619;DHT22;67941;52.506;5.470;2023-02-28T01:54:20;4.90;64.50
78619;DHT22;67941;52.506;5.470;2023-02-28T01:56:52;4.90;64.50
78619;DHT22;67941;52.506;5.470;2023-02-28T01:59:24;5.00;64.50
78619;DHT22;67941;52.506;5.470;2023-02-28T02:01:55;5.00;64.50
78619;DHT22;67941;52.506;5.470;2023-02-28T02:04:34;5.00;64.50
78619;DHT22;67941;52.506;5.470;2023-02-28T02:07:05;5.00;64.50
78619;DHT22;67941;52.506;5.470;2023-02-28T02:09:34;5.00;64.50
78619;DHT22;67941;52.506;5.470;2023-02-28T02:12:11;5.00;64.50
78619;DHT22;67941;52.506;5.470;2023-02-28T02:14:51;5.00;64.50
78619;DHT22;67941;52.506;5.470;2023-02-28T02:17:31;5.00;64.50
78619;DHT22;67941;52.506;5.470;2023-02-28T02:23:33;5.00;64.70
78619;DHT22;67941;52.506;5.470;2023-02-28T02:26:38;5.00;64.70
78619;DHT22;67941;52.506;5.470;2023-02-28T02:32:34;5.00;64.70
78619;DHT22;67941;52.506;5.470;2023-02-28T02:35:15;5.00;64.70
78619;DHT22;67941;52.506;5.470;2023-02-28T02:37:50;5.00;64.80
78619;DHT22;67941;52.506;5.470;2023-02-28T02:40:23;5.00;64.80
78619;DHT22;67941;52.506;5.470;2023-02-28T02:42:57;5.00;64.80
78619;DHT22;67941;52.506;5.470;2023-02-28T02:45:29;5.10;64.80
78619;DHT22;67941;52.506;5.470;2023-02-28T02:48:03;5.10;64.80
78619;DHT22;67941;52.506;5.470;2023-02-28T02:50:38;5.10;64.80
78619;DHT22;67941;52.506;5.470;2023-02-28T02:53:09;5.10;64.90
78619;DHT22;67941;52.506;5.470;2023-02-28T02:55:42;5.00;64.90
78619;DHT22;67941;52.506;5.470;2023-02-28T02:58:15;5.00;65.00
78619;DHT22;67941;52.506;5.470;2023-02-28T03:00:50;5.00;64.90
78619;DHT22;67941;52.506;5.470;2023-02-28T03:03:21;5.00;65.00
78619;DHT22;67941;52.506;5.470;2023-02-28T03:05:58;4.90;65.00
78619;DHT22;67941;52.506;5.470;2023-02-28T03:08:30;4.90;65.10
78619;DHT22;67941;52.506;5.470;2023-02-28T03:11:04;4.80;65.10
78619;DHT22;67941;52.506;5.470;2023-02-28T03:14:05;4.70;65.10
78619;DHT22;67941;52.506;5.470;2023-02-28T03:19:37;4.70;65.20
78619;DHT22;67941;52.506;5.470;2023-02-28T03:22:19;4.70;65.30
78619;DHT22;67941;52.506;5.470;2023-02-28T03:24:54;4.70;65.30
78619;DHT22;67941;52.506;5.470;2023-02-28T03:27:29;4.60;65.30
78619;DHT22;67941;52.506;5.470;2023-02-28T03:30:02;4.50;65.30
78619;DHT22;67941;52.506;5.470;2023-02-28T03:32:36;4.50;65.30
78619;DHT22;67941;52.506;5.470;2023-02-28T03:35:10;4.50;65.30
78619;DHT22;67941;52.506;5.470;2023-02-28T03:37:53;4.50;65.40
78619;DHT22;67941;52.506;5.470;2023-02-28T03:40:25;4.50;65.40
78619;DHT22;67941;52.506;5.470;2023-02-28T03:42:58;4.50;65.40
78619;DHT22;67941;52.506;5.470;2023-02-28T03:45:30;4.50;65.50
78619;DHT22;67941;52.506;5.470;2023-02-28T03:48:02;4.50;65.50
78619;DHT22;67941;52.506;5.470;2023-02-28T03:50:36;4.50;65.60
78619;DHT22;67941;52.506;5.470;2023-02-28T03:53:12;4.50;65.50
78619;DHT22;67941;52.506;5.470;2023-02-28T03:55:45;4.50;65.50
78619;DHT22;67941;52.506;5.470;2023-02-28T03:58:20;4.50;65.50
78619;DHT22;67941;52.506;5.470;2023-02-28T04:00:57;4.50;65.50
78619;DHT22;67941;52.506;5.470;2023-02-28T04:03:34;4.50;65.60
78619;DHT22;67941;52.506;5.470;2023-02-28T04:06:04;4.50;65.70
78619;DHT22;67941;52.506;5.470;2023-02-28T04:08:37;4.50;65.60
78619;DHT22;67941;52.506;5.470;2023-02-28T04:11:12;4.50;65.70
78619;DHT22;67941;52.506;5.470;2023-02-28T04:13:45;4.50;65.70
78619;DHT22;67941;52.506;5.470;2023-02-28T04:16:14;4.50;65.70
78619;DHT22;67941;52.506;5.470;2023-02-28T04:18:43;4.50;65.80
78619;DHT22;67941;52.506;5.470;2023-02-28T04:21:12;4.50;65.80
78619;DHT22;67941;52.506;5.470;2023-02-28T04:23:43;4.50;65.90
78619;DHT22;67941;52.506;5.470;2023-02-28T04:26:12;4.50;65.90
78619;DHT22;67941;52.506;5.470;2023-02-28T04:28:41;4.50;65.90
78619;DHT22;67941;52.506;5.470;2023-02-28T04:31:10;4.50;65.90
78619;DHT22;67941;52.506;5.470;2023-02-28T04:33:39;4.50;65.90
78619;DHT22;67941;52.506;5.470;2023-02-28T04:36:09;4.50;66.00
78619;DHT22;67941;52.506;5.470;2023-02-28T04:38:39;4.50;66.00
78619;DHT22;67941;52.506;5.470;2023-02-28T04:41:10;4.50;66.00
78619;DHT22;67941;52.506;5.470;2023-02-28T04:43:39;4.40;66.00
78619;DHT22;67941;52.506;5.470;2023-02-28T04:46:08;4.50;66.00
78619;DHT22;67941;52.506;5.470;2023-02-28T04:48:39;4.40;66.10
78619;DHT22;67941;52.506;5.470;2023-02-28T04:51:11;4.40;66.00
78619;DHT22;67941;52.506;5.470;2023-02-28T04:53:41;4.40;66.10
78619;DHT22;67941;52.506;5.470;2023-02-28T04:56:14;4.40;66.10
78619;DHT22;67941;52.506;5.470;2023-02-28T04:58:44;4.40;66.10
78619;DHT22;67941;52.506;5.470;2023-02-28T05:01:19;4.30;66.10
78619;DHT22;67941;52.506;5.470;2023-02-28T05:03:48;4.40;66.20
78619;DHT22;67941;52.506;5.470;2023-02-28T05:06:19;4.30;66.20
78619;DHT22;67941;52.506;5.470;2023-02-28T05:08:49;4.30;66.20
78619;DHT22;67941;52.506;5.470;2023-02-28T05:11:22;4.30;66.30
78619;DHT22;67941;52.506;5.470;2023-02-28T05:13:52;4.30;66.30
78619;DHT22;67941;52.506;5.470;2023-02-28T05:16:22;4.30;66.30
78619;DHT22;67941;52.506;5.470;2023-02-28T05:18:51;4.30;66.30
78619;DHT22;67941;52.506;5.470;2023-02-28T05:21:25;4.20;66.30
78619;DHT22;67941;52.506;5.470;2023-02-28T05:23:56;4.20;66.30
78619;DHT22;67941;52.506;5.470;2023-02-28T05:26:28;4.20;66.40
78619;DHT22;67941;52.506;5.470;2023-02-28T05:28:58;4.10;66.40
78619;DHT22;67941;52.506;5.470;2023-02-28T05:31:26;4.20;66.50
78619;DHT22;67941;52.506;5.470;2023-02-28T05:33:55;4.10;66.50
78619;DHT22;67941;52.506;5.470;2023-02-28T05:36:24;4.10;66.50
78619;DHT22;67941;52.506;5.470;2023-02-28T05:38:53;4.10;66.50
78619;DHT22;67941;52.506;5.470;2023-02-28T05:41:22;4.10;66.50
78619;DHT22;67941;52.506;5.470;2023-02-28T05:43:54;4.10;66.50
78619;DHT22;67941;52.506;5.470;2023-02-28T05:46:23;4.10;66.50
78619;DHT22;67941;52.506;5.470;2023-02-28T05:48:52;4.10;66.60
78619;DHT22;67941;52.506;5.470;2023-02-28T05:51:21;4.10;66.50
78619;DHT22;67941;52.506;5.470;2023-02-28T05:53:50;4.10;66.60
78619;DHT22;67941;52.506;5.470;2023-02-28T05:56:19;4.10;66.60
78619;DHT22;67941;52.506;5.470;2023-02-28T05:58:47;4.00;66.60
78619;DHT22;67941;52.506;5.470;2023-02-28T06:01:25;4.00;66.70
78619;DHT22;67941;52.506;5.470;2023-02-28T06:03:59;4.00;66.70
78619;DHT22;67941;52.506;5.470;2023-02-28T06:06:28;4.00;66.70
78619;DHT22;67941;52.506;5.470;2023-02-28T06:09:00;4.00;66.70
78619;DHT22;67941;52.506;5.470;2023-02-28T06:11:29;4.00;66.70
78619;DHT22;67941;52.506;5.470;2023-02-28T06:13:59;3.90;66.70
78619;DHT22;67941;52.506;5.470;2023-02-28T06:16:32;3.90;66.70
78619;DHT22;67941;52.506;5.470;2023-02-28T06:19:03;3.80;66.70
78619;DHT22;67941;52.506;5.470;2023-02-28T06:21:32;3.70;66.80
78619;DHT22;67941;52.506;5.470;2023-02-28T06:24:01;3.60;66.80
78619;DHT22;67941;52.506;5.470;2023-02-28T06:26:31;3.60;66.80
78619;DHT22;67941;52.506;5.470;2023-02-28T06:29:00;3.50;66.90
78619;DHT22;67941;52.506;5.470;2023-02-28T06:31:32;3.50;66.90
78619;DHT22;67941;52.506;5.470;2023-02-28T06:34:00;3.40;67.00
78619;DHT22;67941;52.506;5.470;2023-02-28T06:36:29;3.40;67.00
78619;DHT22;67941;52.506;5.470;2023-02-28T06:38:58;3.30;67.00
78619;DHT22;67941;52.506;5.470;2023-02-28T06:41:27;3.30;67.00
78619;DHT22;67941;52.506;5.470;2023-02-28T06:43:56;3.30;67.00
78619;DHT22;67941;52.506;5.470;2023-02-28T06:46:25;3.30;67.00
78619;DHT22;67941;52.506;5.470;2023-02-28T06:48:56;3.30;67.00
78619;DHT22;67941;52.506;5.470;2023-02-28T06:51:25;3.30;67.00
78619;DHT22;67941;52.506;5.470;2023-02-28T06:53:54;3.30;67.00
78619;DHT22;67941;52.506;5.470;2023-02-28T06:56:23;3.20;67.00
78619;DHT22;67941;52.506;5.470;2023-02-28T06:58:52;3.10;67.00
78619;DHT22;67941;52.506;5.470;2023-02-28T07:01:22;3.10;67.00
78619;DHT22;67941;52.506;5.470;2023-02-28T07:03:51;3.10;67.10
78619;DHT22;67941;52.506;5.470;2023-02-28T07:06:23;3.10;67.10
78619;DHT22;67941;52.506;5.470;2023-02-28T07:08:53;3.10;67.10
78619;DHT22;67941;52.506;5.470;2023-02-28T07:11:23;3.10;67.10
78619;DHT22;67941;52.506;5.470;2023-02-28T07:13:52;3.10;67.10
78619;DHT22;67941;52.506;5.470;2023-02-28T07:16:22;3.00;67.10
78619;DHT22;67941;52.506;5.470;2023-02-28T07:18:52;2.90;67.10
78619;DHT22;67941;52.506;5.470;2023-02-28T07:21:24;2.90;67.20
78619;DHT22;67941;52.506;5.470;2023-02-28T07:23:52;2.80;67.30
78619;DHT22;67941;52.506;5.470;2023-02-28T07:26:22;2.80;67.30
78619;DHT22;67941;52.506;5.470;2023-02-28T07:28:51;2.80;67.40
78619;DHT22;67941;52.506;5.470;2023-02-28T07:31:20;2.80;67.50
78619;DHT22;67941;52.506;5.470;2023-02-28T07:33:49;2.80;67.50
78619;DHT22;67941;52.506;5.470;2023-02-28T07:36:19;2.80;67.50
78619;DHT22;67941;52.506;5.470;2023-02-28T07:38:50;2.90;67.50
78619;DHT22;67941;52.506;5.470;2023-02-28T07:41:21;3.00;67.50
78619;DHT22;67941;52.506;5.470;2023-02-28T07:43:53;3.00;67.50
78619;DHT22;67941;52.506;5.470;2023-02-28T07:46:23;3.10;67.50
78619;DHT22;67941;52.506;5.470;2023-02-28T07:48:52;3.10;67.40
78619;DHT22;67941;52.506;5.470;2023-02-28T07:51:24;3.20;67.50
78619;DHT22;67941;52.506;5.470;2023-02-28T07:53:56;3.30;67.40
78619;DHT22;67941;52.506;5.470;2023-02-28T07:56:25;3.30;67.40
78619;DHT22;67941;52.506;5.470;2023-02-28T07:58:54;3.40;67.30
78619;DHT22;67941;52.506;5.470;2023-02-28T08:01:23;3.50;67.20
78619;DHT22;67941;52.506;5.470;2023-02-28T08:03:54;3.50;67.20
78619;DHT22;67941;52.506;5.470;2023-02-28T08:06:24;3.60;67.20
78619;DHT22;67941;52.506;5.470;2023-02-28T08:08:56;3.60;67.20
78619;DHT22;67941;52.506;5.470;2023-02-28T08:11:25;3.60;67.30
78619;DHT22;67941;52.506;5.470;2023-02-28T08:13:54;3.70;67.30
78619;DHT22;67941;52.506;5.470;2023-02-28T08:16:23;3.70;67.40
78619;DHT22;67941;52.506;5.470;2023-02-28T08:18:53;3.90;67.40
78619;DHT22;67941;52.506;5.470;2023-02-28T08:21:22;3.90;67.40
78619;DHT22;67941;52.506;5.470;2023-02-28T08:23:51;4.00;67.40
78619;DHT22;67941;52.506;5.470;2023-02-28T08:26:23;4.10;67.30
78619;DHT22;67941;52.506;5.470;2023-02-28T08:28:51;4.20;67.40
78619;DHT22;67941;52.506;5.470;2023-02-28T08:31:20;4.30;67.30
78619;DHT22;67941;52.506;5.470;2023-02-28T08:33:49;4.40;67.30
78619;DHT22;67941;52.506;5.470;2023-02-28T08:36:19;4.40;67.30
78619;DHT22;67941;52.506;5.470;2023-02-28T08:38:48;4.50;67.30
78619;DHT22;67941;52.506;5.470;2023-02-28T08:41:17;4.50;67.30
78619;DHT22;67941;52.506;5.470;2023-02-28T08:43:48;4.70;67.30
78619;DHT22;67941;52.506;5.470;2023-02-28T08:46:18;4.70;67.40
78619;DHT22;67941;52.506;5.470;2023-02-28T08:48:46;4.90;67.30
78619;DHT22;67941;52.506;5.470;2023-02-28T08:51:17;4.90;67.20
78619;DHT22;67941;52.506;5.470;2023-02-28T08:53:52;5.00;67.30
78619;DHT22;67941;52.506;5.470;2023-02-28T08:56:21;5.00;67.30
78619;DHT22;67941;52.506;5.470;2023-02-28T08:58:54;5.10;67.20
78619;DHT22;67941;52.506;5.470;2023-02-28T09:01:25;5.10;67.20
78619;DHT22;67941;52.506;5.470;2023-02-28T09:03:55;5.10;67.30
78619;DHT22;67941;52.506;5.470;2023-02-28T09:06:26;5.30;67.30
78619;DHT22;67941;52.506;5.470;2023-02-28T09:08:56;5.30;67.40
78619;DHT22;67941;52.506;5.470;2023-02-28T09:11:27;5.50;67.30
78619;DHT22;67941;52.506;5.470;2023-02-28T09:13:59;5.60;67.40
78619;DHT22;67941;52.506;5.470;2023-02-28T09:16:29;5.80;67.30
78619;DHT22;67941;52.506;5.470;2023-02-28T09:18:59;5.90;67.30
78619;DHT22;67941;52.506;5.470;2023-02-28T09:21:28;6.00;67.20
78619;DHT22;67941;52.506;5.470;2023-02-28T09:23:57;6.10;67.10
78619;DHT22;67941;52.506;5.470;2023-02-28T09:26:27;6.20;67.20
78619;DHT22;67941;52.506;5.470;2023-02-28T09:28:58;6.30;67.10
78619;DHT22;67941;52.506;5.470;2023-02-28T09:31:28;6.40;67.10
78619;DHT22;67941;52.506;5.470;2023-02-28T09:33:57;6.40;67.10
78619;DHT22;67941;52.506;5.470;2023-02-28T09:36:27;6.40;67.00
78619;DHT22;67941;52.506;5.470;2023-02-28T09:38:56;6.50;67.10
78619;DHT22;67941;52.506;5.470;2023-02-28T09:41:26;6.40;67.20
78619;DHT22;67941;52.506;5.470;2023-02-28T09:44:01;6.50;67.20
78619;DHT22;67941;52.506;5.470;2023-02-28T09:46:34;6.60;67.20
78619;DHT22;67941;52.506;5.470;2023-02-28T09:49:08;6.60;67.20
78619;DHT22;67941;52.506;5.470;2023-02-28T09:51:48;6.70;67.20
78619;DHT22;67941;52.506;5.470;2023-02-28T09:54:20;6.70;67.10
78619;DHT22;67941;52.506;5.470;2023-02-28T09:56:51;6.80;67.10
78619;DHT22;67941;52.506;5.470;2023-02-28T09:59:35;6.80;67.10
78619;DHT22;67941;52.506;5.470;2023-02-28T10:02:13;7.00;67.10
78619;DHT22;67941;52.506;5.470;2023-02-28T10:04:50;7.10;67.00
78619;DHT22;67941;52.506;5.470;2023-02-28T10:07:37;7.20;66.90
78619;DHT22;67941;52.506;5.470;2023-02-28T10:10:19;7.30;66.90
78619;DHT22;67941;52.506;5.470;2023-02-28T10:12:52;7.40;66.80
78619;DHT22;67941;52.506;5.470;2023-02-28T10:15:29;7.50;66.70
78619;DHT22;67941;52.506;5.470;2023-02-28T10:18:01;7.50;66.80
78619;DHT22;67941;52.506;5.470;2023-02-28T10:20:34;7.50;66.70
78619;DHT22;67941;52.506;5.470;2023-02-28T10:23:10;7.50;66.70
78619;DHT22;67941;52.506;5.470;2023-02-28T10:25:40;7.60;66.60
78619;DHT22;67941;52.506;5.470;2023-02-28T10:28:16;7.60;66.70
78619;DHT22;67941;52.506;5.470;2023-02-28T10:30:49;7.60;66.70
78619;DHT22;67941;52.506;5.470;2023-02-28T10:33:24;7.70;66.80
78619;DHT22;67941;52.506;5.470;2023-02-28T10:35:54;7.80;66.70
78619;DHT22;67941;52.506;5.470;2023-02-28T10:38:26;7.80;66.70
78619;DHT22;67941;52.506;5.470;2023-02-28T10:41:04;8.00;66.60
78619;DHT22;67941;52.506;5.470;2023-02-28T10:43:34;8.00;66.60
78619;DHT22;67941;52.506;5.470;2023-02-28T10:46:11;8.00;66.50
78619;DHT22;67941;52.506;5.470;2023-02-28T10:49:01;8.10;66.50
78619;DHT22;67941;52.506;5.470;2023-02-28T10:51:39;8.10;66.50
78619;DHT22;67941;52.506;5.470;2023-02-28T10:54:16;8.20;66.50
78619;DHT22;67941;52.506;5.470;2023-02-28T10:56:45;8.30;66.60
78619;DHT22;67941;52.506;5.470;2023-02-28T10:59:28;8.40;66.50
78619;DHT22;67941;52.506;5.470;2023-02-28T11:02:00;8.50;66.50
78619;DHT22;67941;52.506;5.470;2023-02-28T11:04:35;8.60;66.50
78619;DHT22;67941;52.506;5.470;2023-02-28T11:07:16;8.80;66.40
78619;DHT22;67941;52.506;5.470;2023-02-28T11:09:46;8.90;66.40
78619;DHT22;67941;52.506;5.470;2023-02-28T11:12:22;8.90;66.30
78619;DHT22;67941;52.506;5.470;2023-02-28T11:14:54;8.90;66.30
78619;DHT22;67941;52.506;5.470;2023-02-28T11:17:30;8.90;66.20
78619;DHT22;67941;52.506;5.470;2023-02-28T11:20:01;8.90;66.20
78619;DHT22;67941;52.506;5.470;2023-02-28T11:22:32;8.80;66.20
78619;DHT22;67941;52.506;5.470;2023-02-28T11:25:09;8.60;66.10
78619;DHT22;67941;52.506;5.470;2023-02-28T11:27:49;8.40;66.10
78619;DHT22;67941;52.506;5.470;2023-02-28T11:30:39;8.10;66.10
78619;DHT22;67941;52.506;5.470;2023-02-28T11:33:28;7.80;66.10
78619;DHT22;67941;52.506;5.470;2023-02-28T11:36:00;7.40;66.30
78619;DHT22;67941;52.506;5.470;2023-02-28T11:38:30;7.00;66.50
78619;DHT22;67941;52.506;5.470;2023-02-28T11:41:09;6.70;66.50
78619;DHT22;67941;52.506;5.470;2023-02-28T11:43:52;6.50;66.60
78619;DHT22;67941;52.506;5.470;2023-02-28T11:46:32;6.20;66.70
78619;DHT22;67941;52.506;5.470;2023-02-28T11:49:15;5.90;66.70
78619;DHT22;67941;52.506;5.470;2023-02-28T11:51:51;5.80;66.70
78619;DHT22;67941;52.506;5.470;2023-02-28T11:54:52;5.60;66.70
78619;DHT22;67941;52.506;5.470;2023-02-28T11:57:29;5.50;66.70
78619;DHT22;67941;52.506;5.470;2023-02-28T12:00:07;5.40;66.60
78619;DHT22;67941;52.506;5.470;2023-02-28T12:02:52;5.30;66.60
78619;DHT22;67941;52.506;5.470;2023-02-28T12:05:30;5.30;66.40
78619;DHT22;67941;52.506;5.470;2023-02-28T12:08:13;5.30;66.30
78619;DHT22;67941;52.506;5.470;2023-02-28T12:10:59;5.20;66.20
78619;DHT22;67941;52.506;5.470;2023-02-28T12:13:38;5.10;66.10
78619;DHT22;67941;52.506;5.470;2023-02-28T12:16:40;5.00;65.90
78619;DHT22;67941;52.506;5.470;2023-02-28T12:19:18;5.00;65.90
78619;DHT22;67941;52.506;5.470;2023-02-28T12:22:19;5.00;65.80
78619;DHT22;67941;52.506;5.470;2023-02-28T12:25:17;4.90;65.70
78619;DHT22;67941;52.506;5.470;2023-02-28T12:27:49;4.90;65.60
78619;DHT22;67941;52.506;5.470;2023-02-28T12:30:22;4.90;65.40
78619;DHT22;67941;52.506;5.470;2023-02-28T12:32:56;4.90;65.30
78619;DHT22;67941;52.506;5.470;2023-02-28T12:35:32;4.90;65.30
78619;DHT22;67941;52.506;5.470;2023-02-28T12:38:10;4.90;65.10
78619;DHT22;67941;52.506;5.470;2023-02-28T12:40:46;5.00;65.00
78619;DHT22;67941;52.506;5.470;2023-02-28T12:43:18;4.90;64.90
78619;DHT22;67941;52.506;5.470;2023-02-28T12:45:53;4.90;64.80
78619;DHT22;67941;52.506;5.470;2023-02-28T12:48:29;4.90;64.70
78619;DHT22;67941;52.506;5.470;2023-02-28T12:51:00;4.90;64.70
78619;DHT22;67941;52.506;5.470;2023-02-28T12:53:41;4.90;64.60
78619;DHT22;67941;52.506;5.470;2023-02-28T12:56:16;4.90;64.60
78619;DHT22;67941;52.506;5.470;2023-02-28T12:58:50;4.90;64.60
78619;DHT22;67941;52.506;5.470;2023-02-28T13:01:41;4.90;64.60
78619;DHT22;67941;52.506;5.470;2023-02-28T13:04:36;5.00;64.50
78619;DHT22;67941;52.506;5.470;2023-02-28T13:07:28;5.00;64.50
78619;DHT22;67941;52.506;5.470;2023-02-28T13:10:04;5.00;64.40
78619;DHT22;67941;52.506;5.470;2023-02-28T13:12:34;5.00;64.30
78619;DHT22;67941;52.506;5.470;2023-02-28T13:15:07;5.00;64.20
78619;DHT22;67941;52.506;5.470;2023-02-28T13:17:40;5.00;64.10
78619;DHT22;67941;52.506;5.470;2023-02-28T13:20:17;5.00;64.00
78619;DHT22;67941;52.506;5.470;2023-02-28T13:22:47;5.10;63.90
78619;DHT22;67941;52.506;5.470;2023-02-28T13:25:52;5.10;63.80
78619;DHT22;67941;52.506;5.470;2023-02-28T13:34:35;5.20;63.60
78619;DHT22;67941;52.506;5.470;2023-02-28T13:37:33;5.20;63.50
78619;DHT22;67941;52.506;5.470;2023-02-28T13:40:27;5.20;63.40
78619;DHT22;67941;52.506;5.470;2023-02-28T13:43:08;5.30;63.30
78619;DHT22;67941;52.506;5.470;2023-02-28T13:45:37;5.30;63.30
78619;DHT22;67941;52.506;5.470;2023-02-28T13:48:17;5.30;63.20
78619;DHT22;67941;52.506;5.470;2023-02-28T13:50:47;5.30;63.20
78619;DHT22;67941;52.506;5.470;2023-02-28T13:53:48;5.30;63.10
78619;DHT22;67941;52.506;5.470;2023-02-28T13:56:36;5.30;63.00
78619;DHT22;67941;52.506;5.470;2023-02-28T13:59:18;5.30;63.00
78619;DHT22;67941;52.506;5.470;2023-02-28T14:02:00;5.30;63.00
78619;DHT22;67941;52.506;5.470;2023-02-28T14:04:48;5.30;63.00
78619;DHT22;67941;52.506;5.470;2023-02-28T14:07:24;5.30;62.90
78619;DHT22;67941;52.506;5.470;2023-02-28T14:10:00;5.30;62.90
78619;DHT22;67941;52.506;5.470;2023-02-28T14:12:59;5.30;63.00
78619;DHT22;67941;52.506;5.470;2023-02-28T14:15:47;5.30;63.00
78619;DHT22;67941;52.506;5.470;2023-02-28T14:18:23;5.30;62.90
78619;DHT22;67941;52.506;5.470;2023-02-28T14:20:58;5.30;62.80
78619;DHT22;67941;52.506;5.470;2023-02-28T14:23:52;5.40;62.60
78619;DHT22;67941;52.506;5.470;2023-02-28T14:26:51;5.50;62.50
78619;DHT22;67941;52.506;5.470;2023-02-28T14:32:27;5.50;62.20
78619;DHT22;67941;52.506;5.470;2023-02-28T14:35:05;5.50;62.20
78619;DHT22;67941;52.506;5.470;2023-02-28T14:37:41;5.50;62.20
78619;DHT22;67941;52.506;5.470;2023-02-28T14:40:16;5.50;62.30
78619;DHT22;67941;52.506;5.470;2023-02-28T14:42:48;5.50;62.20
78619;DHT22;67941;52.506;5.470;2023-02-28T14:45:23;5.60;62.20
78619;DHT22;67941;52.506;5.470;2023-02-28T14:47:54;5.60;62.10
78619;DHT22;67941;52.506;5.470;2023-02-28T14:50:27;5.60;62.10
78619;DHT22;67941;52.506;5.470;2023-02-28T14:52:56;5.60;62.00
78619;DHT22;67941;52.506;5.470;2023-02-28T14:55:28;5.60;62.00
78619;DHT22;67941;52.506;5.470;2023-02-28T14:57:59;5.70;61.90
78619;DHT22;67941;52.506;5.470;2023-02-28T15:00:30;5.70;61.80
78619;DHT22;67941;52.506;5.470;2023-02-28T15:03:18;5.70;61.90
78619;DHT22;67941;52.506;5.470;2023-02-28T15:05:55;5.60;62.00
78619;DHT22;67941;52.506;5.470;2023-02-28T15:08:25;5.60;62.00
78619;DHT22;67941;52.506;5.470;2023-02-28T15:10:57;5.60;62.20
78619;DHT22;67941;52.506;5.470;2023-02-28T15:13:33;5.50;62.20
78619;DHT22;67941;52.506;5.470;2023-02-28T15:16:09;5.50;62.20
78619;DHT22;67941;52.506;5.470;2023-02-28T15:18:47;5.50;62.30
78619;DHT22;67941;52.506;5.470;2023-02-28T15:21:19;5.40;62.40
78619;DHT22;67941;52.506;5.470;2023-02-28T15:23:51;5.30;62.50
78619;DHT22;67941;52.506;5.470;2023-02-28T15:26:23;5.30;62.50
78619;DHT22;67941;52.506;5.470;2023-02-28T15:28:54;5.30;62.60
78619;DHT22;67941;52.506;5.470;2023-02-28T15:31:28;5.10;62.60
78619;DHT22;67941;52.506;5.470;2023-02-28T15:34:04;5.10;62.70
78619;DHT22;67941;52.506;5.470;2023-02-28T15:36:34;5.10;62.80
78619;DHT22;67941;52.506;5.470;2023-02-28T15:39:19;5.00;62.80
78619;DHT22;67941;52.506;5.470;2023-02-28T15:41:48;5.00;62.80
78619;DHT22;67941;52.506;5.470;2023-02-28T15:44:26;5.00;62.90
78619;DHT22;67941;52.506;5.470;2023-02-28T15:46:59;5.00;63.00
78619;DHT22;67941;52.506;5.470;2023-02-28T15:49:38;5.00;63.00
78619;DHT22;67941;52.506;5.470;2023-02-28T15:52:13;5.00;63.00
78619;DHT22;67941;52.506;5.470;2023-02-28T15:54:44;5.00;63.00
78619;DHT22;67941;52.506;5.470;2023-02-28T15:57:17;4.90;63.10
78619;DHT22;67941;52.506;5.470;2023-02-28T15:59:51;4.90;63.20
78619;DHT22;67941;52.506;5.470;2023-02-28T16:02:22;4.90;63.20
78619;DHT22;67941;52.506;5.470;2023-02-28T16:05:16;4.90;63.20
78619;DHT22;67941;52.506;5.470;2023-02-28T16:07:46;4.90;63.20
78619;DHT22;67941;52.506;5.470;2023-02-28T16:10:16;4.90;63.30
78619;DHT22;67941;52.506;5.470;2023-02-28T16:12:45;4.90;63.30
78619;DHT22;67941;52.506;5.470;2023-02-28T16:15:19;4.90;63.30
78619;DHT22;67941;52.506;5.470;2023-02-28T16:17:49;4.90;63.40
78619;DHT22;67941;52.506;5.470;2023-02-28T16:20:23;4.90;63.30
78619;DHT22;67941;52.506;5.470;2023-02-28T16:22:53;4.90;63.40
78619;DHT22;67941;52.506;5.470;2023-02-28T16:25:28;4.80;63.40
78619;DHT22;67941;52.506;5.470;2023-02-28T16:28:02;4.80;63.40
78619;DHT22;67941;52.506;5.470;2023-02-28T16:30:31;4.70;63.50
78619;DHT22;67941;52.506;5.470;2023-02-28T16:33:00;4.70;63.50
78619;DHT22;67941;52.506;5.470;2023-02-28T16:35:31;4.70;63.50
78619;DHT22;67941;52.506;5.470;2023-02-28T16:38:00;4.70;63.60
78619;DHT22;67941;52.506;5.470;2023-02-28T16:40:33;4.70;63.60
78619;DHT22;67941;52.506;5.470;2023-02-28T16:43:05;4.70;63.70
78619;DHT22;67941;52.506;5.470;2023-02-28T16:45:35;4.70;63.70